Time;durP1;ratioP1;P1;durP2;ratioP2;P2;SDS_P1;SDS_P2;PMS_P1;PMS_P2;Temp;Humidity;BMP_temperature;BMP_pressure;BME280_temperature;BME280_humidity;BME280_pressure;Samples;Min_cycle;Max_cycle;Signal;HPM_P1;HPM_P2
2023/05/20 00:01:52;;;;;;;419.53;389.97;;;12.30;24.30;;;;;;4994583;28;20496;-71
2023/05/20 00:04:18;;;;;;;327.60;306.67;;;12.20;24.50;;;;;;4994679;28;20170;-72
2023/05/20 00:06:43;;;;;;;303.57;283.57;;;12.30;24.70;;;;;;4994830;28;20173;-72
2023/05/20 00:09:09;;;;;;;573.50;535.30;;;12.30;24.60;;;;;;4994425;28;20212;-72
2023/05/20 00:11:35;;;;;;;437.80;408.17;;;12.30;24.70;;;;;;4994378;28;20173;-72
2023/05/20 00:14:00;;;;;;;503.47;468.53;;;12.30;24.40;;;;;;4994465;28;20503;-72
2023/05/20 00:16:26;;;;;;;691.17;645.20;;;12.30;24.80;;;;;;4994515;28;20176;-72
2023/05/20 00:18:52;;;;;;;262.30;244.90;;;12.30;24.60;;;;;;4994415;28;20188;-72
2023/05/20 00:21:17;;;;;;;358.27;335.17;;;12.30;24.80;;;;;;4994462;28;20213;-72
2023/05/20 00:23:43;;;;;;;352.50;329.90;;;12.30;24.60;;;;;;4994013;28;20182;-72
2023/05/20 00:26:09;;;;;;;461.50;432.70;;;12.30;24.70;;;;;;4994322;28;20184;-71
2023/05/20 00:28:35;;;;;;;309.83;290.30;;;12.30;24.60;;;;;;4994269;28;20196;-71
2023/05/20 00:31:00;;;;;;;541.30;505.57;;;12.30;24.20;;;;;;4994389;28;20420;-71
2023/05/20 00:33:26;;;;;;;367.90;343.67;;;12.30;24.20;;;;;;4993850;28;20176;-71
2023/05/20 00:35:51;;;;;;;533.53;499.90;;;12.30;24.20;;;;;;4994171;28;20176;-71
2023/05/20 00:38:17;;;;;;;444.10;415.10;;;12.30;24.20;;;;;;4994082;28;20530;-71
2023/05/20 00:40:43;;;;;;;444.90;414.63;;;12.30;24.20;;;;;;4994022;28;20549;-71
2023/05/20 00:43:08;;;;;;;372.57;348.60;;;12.30;24.30;;;;;;4993468;28;20935;-71
2023/05/20 00:45:34;;;;;;;346.13;324.03;;;12.30;24.90;;;;;;4994580;28;20710;-71
2023/05/20 00:48:02;;;;;;;315.73;295.17;;;12.30;25.10;;;;;;4993894;28;20214;-71
2023/05/20 00:50:28;;;;;;;312.53;291.60;;;12.20;25.10;;;;;;4993983;28;20443;-71
2023/05/20 00:52:54;;;;;;;356.07;332.97;;;12.30;25.70;;;;;;4993617;28;20415;-71
2023/05/20 00:55:20;;;;;;;331.10;309.53;;;12.30;25.00;;;;;;4993974;28;20469;-71
2023/05/20 00:57:48;;;;;;;609.23;568.67;;;12.30;25.10;;;;;;4993836;28;20448;-71
2023/05/20 01:00:13;;;;;;;340.63;319.17;;;12.30;25.20;;;;;;4993571;28;20975;-71
2023/05/20 01:02:39;;;;;;;369.13;343.10;;;12.30;24.60;;;;;;4993588;28;20514;-71
2023/05/20 01:05:05;;;;;;;296.53;275.93;;;12.30;25.40;;;;;;4993861;28;20424;-71
2023/05/20 01:07:31;;;;;;;337.00;315.43;;;12.20;25.90;;;;;;4993639;28;20187;-71
2023/05/20 01:09:57;;;;;;;286.43;267.23;;;12.20;25.80;;;;;;4993430;28;20436;-70
2023/05/20 01:12:30;;;;;;;666.43;622.00;;;12.20;25.20;;;;;;4993425;28;20448;-71
2023/05/20 01:15:02;;;;;;;414.93;387.87;;;12.20;25.20;;;;;;4993629;28;20823;-71
2023/05/20 01:17:31;;;;;;;344.33;321.57;;;12.20;25.40;;;;;;4993631;28;20431;-71
2023/05/20 01:19:58;;;;;;;314.43;292.73;;;12.20;25.30;;;;;;4993398;28;20450;-71
2023/05/20 01:22:28;;;;;;;545.33;507.87;;;12.20;25.40;;;;;;4993126;28;20781;-70
2023/05/20 01:24:53;;;;;;;339.00;316.33;;;12.20;25.60;;;;;;4993455;28;20407;-71
2023/05/20 01:27:21;;;;;;;984.13;912.97;;;12.10;25.90;;;;;;4992016;28;20791;-71
2023/05/20 01:29:51;;;;;;;308.37;288.50;;;12.10;26.40;;;;;;4993241;28;20637;-71
2023/05/20 01:32:37;;;;;;;287.10;268.73;;;12.10;26.50;;;;;;4993015;28;20449;-71
2023/05/20 01:35:04;;;;;;;514.13;478.90;;;12.00;26.80;;;;;;4993251;28;20843;-70
2023/05/20 01:37:31;;;;;;;412.83;387.30;;;12.00;26.90;;;;;;4993078;28;20424;-71
2023/05/20 01:39:57;;;;;;;655.47;611.13;;;11.90;26.80;;;;;;4993360;28;20490;-71
2023/05/20 01:42:26;;;;;;;489.67;456.90;;;11.90;26.90;;;;;;4993091;28;20777;-70
2023/05/20 01:44:52;;;;;;;355.33;332.37;;;11.90;27.20;;;;;;4992905;28;20421;-71
2023/05/20 01:47:18;;;;;;;329.40;307.30;;;11.90;27.20;;;;;;4992892;28;20757;-71
2023/05/20 01:49:45;;;;;;;335.40;313.87;;;11.90;27.50;;;;;;4992500;28;20460;-71
2023/05/20 01:52:11;;;;;;;356.00;333.03;;;11.90;27.60;;;;;;4992549;28;20172;-71
2023/05/20 01:54:36;;;;;;;227.17;211.77;;;11.90;27.60;;;;;;4992339;28;20412;-71
2023/05/20 01:57:02;;;;;;;300.77;280.47;;;11.90;27.10;;;;;;4992465;28;20177;-71
2023/05/20 01:59:27;;;;;;;317.47;296.73;;;11.90;27.10;;;;;;4992487;28;20600;-71
2023/05/20 02:01:53;;;;;;;405.93;381.27;;;11.90;27.10;;;;;;4992426;28;20269;-71
2023/05/20 02:04:18;;;;;;;700.50;650.23;;;11.80;27.60;;;;;;4992545;28;20212;-71
2023/05/20 02:06:44;;;;;;;421.47;395.87;;;11.80;28.00;;;;;;4992591;28;20532;-71
2023/05/20 02:09:10;;;;;;;538.70;501.67;;;11.90;28.00;;;;;;4992396;28;20208;-71
2023/05/20 02:11:35;;;;;;;293.07;273.70;;;11.80;28.00;;;;;;4992562;28;20431;-71
2023/05/20 02:14:01;;;;;;;277.63;259.10;;;11.80;27.90;;;;;;4992701;28;20169;-71
2023/05/20 02:16:27;;;;;;;311.30;290.47;;;11.80;27.80;;;;;;4992811;28;20206;-70
2023/05/20 02:18:52;;;;;;;318.77;297.23;;;11.80;28.00;;;;;;4992303;28;20178;-70
2023/05/20 02:21:18;;;;;;;300.83;281.07;;;11.80;28.00;;;;;;4992260;28;20212;-70
2023/05/20 02:23:44;;;;;;;279.17;260.20;;;11.80;27.50;;;;;;4991799;28;20215;-73
2023/05/20 02:26:09;;;;;;;303.47;282.73;;;11.80;27.90;;;;;;4992261;28;20184;-74
2023/05/20 02:28:39;;;;;;;776.27;723.90;;;11.70;27.90;;;;;;4992204;28;20452;-73
2023/05/20 02:31:05;;;;;;;292.40;272.67;;;11.70;27.90;;;;;;4992289;28;20168;-73
2023/05/20 02:33:30;;;;;;;533.30;498.77;;;11.70;27.90;;;;;;4991734;28;20412;-73
2023/05/20 02:35:56;;;;;;;420.27;393.07;;;11.60;27.80;;;;;;4992022;28;20422;-74
2023/05/20 02:38:22;;;;;;;796.87;742.20;;;11.60;28.80;;;;;;4992110;28;20180;-73
2023/05/20 02:40:48;;;;;;;590.50;554.33;;;11.40;29.30;;;;;;4991979;28;20679;-73
2023/05/20 02:43:13;;;;;;;435.50;407.50;;;11.30;30.00;;;;;;4991768;28;20411;-73
2023/05/20 02:45:39;;;;;;;366.40;343.63;;;11.20;31.10;;;;;;4990552;28;20181;-73
2023/05/20 02:48:05;;;;;;;651.40;608.27;;;11.10;31.90;;;;;;4991952;28;20295;-73
2023/05/20 02:50:30;;;;;;;269.20;251.07;;;11.00;31.90;;;;;;4991812;28;20436;-73
2023/05/20 02:52:56;;;;;;;364.37;339.83;;;10.90;32.10;;;;;;4991507;28;20240;-73
2023/05/20 02:55:22;;;;;;;765.97;714.77;;;10.80;33.50;;;;;;4991622;28;20180;-73
2023/05/20 02:57:48;;;;;;;414.33;389.43;;;10.70;33.80;;;;;;4993489;28;20177;-73
2023/05/20 03:00:13;;;;;;;215.60;199.87;;;10.70;33.80;;;;;;4992546;28;20443;-73
2023/05/20 03:02:39;;;;;;;364.63;342.87;;;10.70;34.30;;;;;;4991790;28;20176;-73
2023/05/20 03:05:05;;;;;;;356.93;335.53;;;10.70;34.50;;;;;;4992123;28;20172;-73
2023/05/20 03:07:33;;;;;;;501.43;469.40;;;10.70;34.50;;;;;;4992915;28;20662;-73
2023/05/20 03:09:58;;;;;;;428.60;400.37;;;10.70;34.70;;;;;;4992289;28;20502;-73
2023/05/20 03:12:25;;;;;;;639.97;600.33;;;10.70;34.60;;;;;;4992309;28;20419;-73
2023/05/20 03:14:54;;;;;;;317.60;298.63;;;10.70;35.40;;;;;;4991730;28;20176;-74
2023/05/20 03:17:20;;;;;;;315.03;296.07;;;10.80;34.70;;;;;;4991866;28;20788;-74
2023/05/20 03:19:45;;;;;;;292.50;273.60;;;10.80;33.40;;;;;;4991572;28;20427;-74
2023/05/20 03:22:11;;;;;;;413.50;385.30;;;10.90;33.20;;;;;;4991104;28;20580;-73
2023/05/20 03:24:37;;;;;;;607.53;568.17;;;11.00;33.00;;;;;;4990202;28;20188;-74
2023/05/20 03:27:02;;;;;;;467.20;438.13;;;11.00;32.90;;;;;;4991373;28;20635;-73
2023/05/20 03:29:28;;;;;;;400.30;376.97;;;11.10;32.30;;;;;;4991286;28;20236;-74
2023/05/20 03:31:54;;;;;;;530.50;498.47;;;11.10;32.90;;;;;;4991122;28;20184;-74
2023/05/20 03:34:19;;;;;;;324.03;302.87;;;11.10;32.70;;;;;;4989959;28;20203;-74
2023/05/20 03:36:45;;;;;;;338.07;318.07;;;11.20;32.30;;;;;;4991118;28;20180;-74
2023/05/20 03:39:11;;;;;;;255.27;238.53;;;11.20;32.00;;;;;;4991166;28;20204;-74
2023/05/20 03:41:36;;;;;;;323.77;303.77;;;11.20;32.00;;;;;;4990985;28;20635;-74
2023/05/20 03:44:02;;;;;;;334.70;315.70;;;11.20;32.00;;;;;;4991331;28;20498;-73
2023/05/20 03:46:29;;;;;;;524.40;490.57;;;11.30;32.10;;;;;;4989914;28;20237;-72
2023/05/20 03:48:55;;;;;;;285.67;266.77;;;11.30;32.10;;;;;;4991181;28;20212;-71
2023/05/20 03:51:20;;;;;;;258.53;241.07;;;11.40;31.70;;;;;;4991045;28;20474;-71
2023/05/20 03:53:46;;;;;;;217.43;201.83;;;11.40;31.70;;;;;;4991282;28;20180;-71
2023/05/20 03:56:11;;;;;;;256.90;239.30;;;11.50;31.10;;;;;;4991481;28;20199;-71
2023/05/20 03:58:37;;;;;;;211.50;196.07;;;11.50;31.00;;;;;;4989689;28;20607;-71
2023/05/20 04:01:03;;;;;;;235.50;218.37;;;11.60;30.70;;;;;;4991023;28;20230;-71
2023/05/20 04:03:28;;;;;;;692.03;643.93;;;11.60;30.50;;;;;;4990749;28;20439;-71
2023/05/20 04:05:54;;;;;;;584.37;544.50;;;11.70;30.10;;;;;;4991020;28;20201;-72
2023/05/20 04:08:20;;;;;;;518.63;484.13;;;11.70;29.90;;;;;;4990929;28;20200;-71
2023/05/20 04:10:46;;;;;;;519.33;484.57;;;11.80;28.70;;;;;;4990985;28;20536;-71
2023/05/20 04:13:13;;;;;;;549.77;511.23;;;11.80;28.80;;;;;;4990812;28;20423;-72
2023/05/20 04:15:38;;;;;;;288.23;269.07;;;11.70;28.90;;;;;;4991037;28;20502;-71
2023/05/20 04:18:05;;;;;;;886.70;825.17;;;11.80;28.90;;;;;;4991056;28;20502;-71
2023/05/20 04:20:31;;;;;;;329.77;307.43;;;11.90;28.00;;;;;;4994340;28;20193;-71
2023/05/20 04:22:56;;;;;;;525.53;490.27;;;11.90;27.50;;;;;;4992952;28;20415;-72
2023/05/20 04:25:22;;;;;;;736.47;684.23;;;11.90;27.20;;;;;;4994424;28;20443;-71
2023/05/20 04:27:53;;;;;;;356.53;331.53;;;12.00;27.90;;;;;;4994345;28;20243;-71
2023/05/20 04:30:20;;;;;;;271.70;252.50;;;12.00;27.30;;;;;;4994393;28;20440;-72
2023/05/20 04:32:47;;;;;;;272.90;253.23;;;12.10;27.10;;;;;;4992825;28;20499;-72
2023/05/20 04:35:13;;;;;;;282.63;262.33;;;12.10;26.60;;;;;;4994191;28;20788;-72
2023/05/20 04:37:39;;;;;;;367.50;341.50;;;11.90;27.10;;;;;;4994266;28;20419;-72
2023/05/20 04:40:05;;;;;;;418.97;391.30;;;12.00;27.10;;;;;;4993997;28;20440;-72
2023/05/20 04:42:32;;;;;;;363.33;338.47;;;12.10;26.50;;;;;;4993848;28;20172;-72
2023/05/20 04:45:00;;;;;;;628.90;588.10;;;12.10;26.80;;;;;;4993928;28;20412;-72
2023/05/20 04:47:27;;;;;;;351.87;328.40;;;12.10;26.60;;;;;;4993868;28;20422;-72
2023/05/20 04:49:56;;;;;;;482.77;451.20;;;12.10;27.20;;;;;;4993787;28;20483;-72
2023/05/20 04:52:22;;;;;;;588.27;547.27;;;12.00;27.60;;;;;;4993651;28;20423;-72
2023/05/20 04:54:49;;;;;;;625.33;586.03;;;12.00;27.40;;;;;;4993845;28;20408;-72
2023/05/20 04:57:16;;;;;;;509.07;475.70;;;12.10;27.10;;;;;;4993719;28;20929;-72
2023/05/20 04:59:41;;;;;;;628.33;587.50;;;12.10;26.90;;;;;;4993454;28;20459;-72
2023/05/20 05:02:07;;;;;;;598.27;555.73;;;12.00;27.60;;;;;;4993368;28;20431;-72
2023/05/20 05:04:32;;;;;;;481.17;447.77;;;12.00;27.90;;;;;;4994015;28;20176;-72
2023/05/20 05:06:58;;;;;;;555.17;520.70;;;12.00;28.10;;;;;;4992249;28;20188;-72
2023/05/20 05:09:23;;;;;;;483.57;452.83;;;12.00;28.10;;;;;;4993344;28;20266;-72
2023/05/20 05:11:49;;;;;;;475.20;443.03;;;12.00;27.90;;;;;;4993252;28;20190;-72
2023/05/20 05:14:15;;;;;;;633.63;591.77;;;12.00;28.10;;;;;;4993602;28;20187;-72
2023/05/20 05:16:41;;;;;;;320.93;296.47;;;12.00;28.10;;;;;;4993500;28;20184;-72
2023/05/20 05:19:07;;;;;;;744.90;693.13;;;12.10;28.20;;;;;;4993372;28;20449;-72
2023/05/20 05:21:33;;;;;;;267.07;248.03;;;12.20;27.50;;;;;;4993284;28;20180;-73
2023/05/20 05:23:58;;;;;;;709.60;658.90;;;12.30;27.70;;;;;;4993357;28;20824;-73
2023/05/20 05:26:25;;;;;;;533.83;499.03;;;12.30;27.00;;;;;;4993353;28;20172;-72
2023/05/20 05:28:51;;;;;;;533.90;498.90;;;12.20;27.20;;;;;;4993274;28;20199;-74
2023/05/20 05:31:17;;;;;;;684.53;637.83;;;12.30;27.40;;;;;;4992131;28;20459;-74
2023/05/20 05:33:42;;;;;;;555.60;519.50;;;12.30;27.10;;;;;;4993027;28;20934;-72
2023/05/20 05:36:08;;;;;;;547.47;513.03;;;12.40;26.60;;;;;;4991777;28;20271;-72
2023/05/20 05:38:33;;;;;;;656.57;610.87;;;12.40;26.50;;;;;;4993282;28;20181;-72
2023/05/20 05:40:59;;;;;;;752.93;699.60;;;12.50;26.20;;;;;;4981616;28;20272;-72
2023/05/20 05:43:24;;;;;;;672.80;626.97;;;12.60;26.40;;;;;;4973165;28;20189;-71
2023/05/20 05:45:50;;;;;;;283.90;264.40;;;12.70;25.30;;;;;;4973764;28;20181;-72
2023/05/20 05:48:15;;;;;;;516.93;483.07;;;12.90;26.50;;;;;;4973970;28;20217;-72
2023/05/20 05:50:45;;;;;;;556.87;518.73;;;13.00;27.40;;;;;;4973990;28;20197;-72
2023/05/20 05:53:11;;;;;;;408.20;378.67;;;13.10;32.90;;;;;;4973354;28;20196;-72
2023/05/20 05:55:36;;;;;;;546.77;511.23;;;13.30;31.60;;;;;;4973422;28;20426;-72
2023/05/20 05:58:02;;;;;;;660.63;614.50;;;13.50;29.70;;;;;;4973283;28;20507;-72
2023/05/20 06:00:28;;;;;;;736.10;685.37;;;13.60;28.90;;;;;;5022029;23;20249;-67
2023/05/20 06:02:53;;;;;;;565.30;528.37;;;13.70;27.60;;;;;;5011684;28;20306;-68
2023/05/20 06:05:19;;;;;;;557.50;522.23;;;13.90;27.70;;;;;;5013157;28;20175;-71
2023/05/20 06:07:44;;;;;;;683.90;637.90;;;14.00;26.70;;;;;;5013080;28;20179;-68
2023/05/20 06:10:10;;;;;;;776.77;722.70;;;14.10;26.10;;;;;;5013132;28;20223;-68
2023/05/20 06:12:36;;;;;;;886.27;823.80;;;14.30;25.60;;;;;;5012670;28;20226;-68
2023/05/20 06:15:01;;;;;;;593.27;555.87;;;14.60;24.60;;;;;;5012770;28;20180;-68
2023/05/20 06:17:27;;;;;;;530.93;499.33;;;14.90;23.20;;;;;;5013046;28;20207;-68
2023/05/20 06:19:53;;;;;;;650.83;605.03;;;15.50;21.30;;;;;;5012666;28;20199;-67
2023/05/20 06:22:18;;;;;;;687.73;641.10;;;16.10;16.70;;;;;;5013101;28;20176;-68
2023/05/20 06:24:44;;;;;;;646.87;602.10;;;16.30;15.50;;;;;;5012964;28;20184;-68
2023/05/20 06:27:09;;;;;;;739.23;686.33;;;16.20;15.10;;;;;;5012818;28;20306;-68
2023/05/20 06:29:35;;;;;;;609.57;568.97;;;16.00;15.70;;;;;;5012429;28;20582;-70
2023/05/20 06:32:00;;;;;;;794.57;736.00;;;16.00;15.80;;;;;;5012504;28;20271;-68
2023/05/20 06:34:26;;;;;;;894.53;826.30;;;15.80;16.20;;;;;;5012577;28;20183;-69
2023/05/20 06:36:52;;;;;;;888.17;821.37;;;16.00;16.40;;;;;;4993920;28;20214;-68
2023/05/20 06:39:18;;;;;;;814.30;753.63;;;15.90;16.60;;;;;;4992846;28;20262;-68
2023/05/20 06:41:43;;;;;;;564.60;530.50;;;15.90;16.10;;;;;;4992582;28;20779;-68
2023/05/20 06:44:09;;;;;;;579.53;542.23;;;16.10;16.30;;;;;;4992860;28;20177;-69
2023/05/20 06:46:35;;;;;;;617.43;576.93;;;16.00;15.60;;;;;;4992830;28;20204;-68
2023/05/20 06:49:00;;;;;;;579.13;543.70;;;16.10;16.20;;;;;;4992699;28;20247;-69
2023/05/20 06:51:27;;;;;;;699.67;650.27;;;16.10;16.20;;;;;;4992861;28;20169;-69
2023/05/20 06:53:53;;;;;;;659.47;615.27;;;16.30;15.60;;;;;;4992788;28;20169;-68
2023/05/20 06:56:20;;;;;;;607.43;570.30;;;16.40;15.40;;;;;;4994298;28;20426;-69
2023/05/20 06:58:45;;;;;;;598.23;557.67;;;16.70;15.00;;;;;;5007506;28;20649;-69
2023/05/20 07:01:11;;;;;;;809.33;747.30;;;16.80;14.30;;;;;;5006522;28;20450;-68
2023/05/20 07:03:37;;;;;;;575.33;539.03;;;17.30;16.40;;;;;;5005980;28;20561;-70
2023/05/20 07:06:02;;;;;;;564.07;528.10;;;17.60;15.20;;;;;;5007402;28;20180;-69
2023/05/20 07:08:28;;;;;;;661.80;616.33;;;17.70;14.80;;;;;;5007839;28;20286;-69
2023/05/20 07:10:57;;;;;;;669.07;624.10;;;17.60;14.90;;;;;;5007254;28;20203;-69
2023/05/20 07:13:22;;;;;;;688.97;640.33;;;17.60;14.90;;;;;;5007032;28;20195;-69
2023/05/20 07:15:48;;;;;;;714.40;662.33;;;17.50;14.80;;;;;;5007935;28;20411;-68
2023/05/20 07:18:14;;;;;;;687.20;638.57;;;17.50;14.90;;;;;;5007353;28;20199;-68
2023/05/20 07:20:40;;;;;;;511.17;478.63;;;18.20;14.40;;;;;;5007545;28;20447;-69
2023/05/20 07:23:06;;;;;;;617.43;576.30;;;20.40;10.50;;;;;;5008335;28;20419;-69
2023/05/20 07:25:31;;;;;;;757.97;700.40;;;23.10;6.90;;;;;;5007496;28;20188;-70
2023/05/20 07:27:58;;;;;;;603.50;564.50;;;24.70;1.00;;;;;;5006008;28;20196;-72
2023/05/20 07:30:24;;;;;;;768.63;709.83;;;23.20;1.00;;;;;;5006425;28;20208;-70
2023/05/20 07:32:49;;;;;;;772.27;713.10;;;21.90;1.00;;;;;;5005914;28;20426;-69
2023/05/20 07:35:15;;;;;;;655.77;612.33;;;23.00;1.00;;;;;;5007769;28;20562;-71
2023/05/20 07:37:40;;;;;;;675.23;629.00;;;24.60;1.00;;;;;;5007577;28;20200;-68
2023/05/20 07:40:07;;;;;;;816.87;751.93;;;27.10;1.00;;;;;;5006938;28;20207;-67
2023/05/20 07:42:33;;;;;;;858.33;790.90;;;26.20;1.00;;;;;;4994249;28;20191;-68
2023/05/20 07:44:58;;;;;;;754.90;694.17;;;25.00;1.00;;;;;;4988343;28;20435;-66
2023/05/20 07:47:24;;;;;;;846.23;778.43;;;22.90;1.00;;;;;;4989236;28;20486;-67
2023/05/20 07:49:49;;;;;;;815.90;755.10;;;21.60;1.00;;;;;;5004073;28;20331;-69
2023/05/20 07:52:15;;;;;;;745.27;691.93;;;21.20;1.00;;;;;;5011223;28;20214;-68
2023/05/20 07:54:41;;;;;;;805.23;744.47;;;21.30;1.00;;;;;;5014652;28;20182;-69
2023/05/20 07:57:06;;;;;;;693.77;645.77;;;20.90;1.90;;;;;;5015718;28;20176;-69
2023/05/20 07:59:32;;;;;;;758.03;702.37;;;21.40;1.20;;;;;;5015536;28;20298;-70
2023/05/20 08:01:57;;;;;;;704.13;652.43;;;20.80;1.60;;;;;;5014816;28;20192;-70
2023/05/20 08:04:23;;;;;;;866.20;797.97;;;20.30;2.40;;;;;;5016549;28;20187;-71
2023/05/20 08:06:49;;;;;;;883.43;812.17;;;19.90;3.90;;;;;;5014511;28;20187;-70
2023/05/20 08:09:14;;;;;;;682.10;632.30;;;20.20;3.90;;;;;;5015351;28;21890;-69
2023/05/20 08:11:40;;;;;;;731.23;679.87;;;19.90;3.70;;;;;;5013331;28;20939;-69
2023/05/20 08:14:09;;;;;;;765.97;707.83;;;19.40;5.40;;;;;;5015462;28;20617;-69
2023/05/20 08:16:35;;;;;;;734.60;680.97;;;19.30;6.00;;;;;;5015515;28;20204;-69
2023/05/20 08:19:01;;;;;;;742.90;686.57;;;19.50;5.70;;;;;;5015352;28;20422;-69
2023/05/20 08:21:26;;;;;;;748.87;695.03;;;19.90;5.20;;;;;;5014866;28;20415;-70
2023/05/20 08:23:52;;;;;;;785.23;726.03;;;20.00;4.90;;;;;;5013701;28;20203;-69
2023/05/20 08:26:17;;;;;;;736.47;681.47;;;20.20;4.50;;;;;;5010235;28;20565;-69
2023/05/20 08:28:43;;;;;;;793.73;734.90;;;19.80;4.70;;;;;;5014964;28;20249;-69
2023/05/20 08:31:08;;;;;;;686.83;640.07;;;19.70;5.00;;;;;;5014919;28;20283;-70
2023/05/20 08:33:34;;;;;;;720.73;669.00;;;20.20;4.50;;;;;;5014150;28;20587;-70
2023/05/20 08:35:59;;;;;;;734.87;679.50;;;22.00;1.70;;;;;;5015261;28;20199;-69
2023/05/20 08:38:25;;;;;;;717.07;664.77;;;21.80;1.20;;;;;;5014803;28;20241;-70
2023/05/20 08:40:55;;;;;;;644.33;603.03;;;22.90;1.00;;;;;;5014647;28;20204;-69
2023/05/20 08:43:24;;;;;;;661.80;617.20;;;25.20;1.00;;;;;;5011071;28;20742;-68
2023/05/20 08:45:53;;;;;;;718.97;666.20;;;26.30;1.00;;;;;;5011451;28;20423;-68
2023/05/20 08:48:21;;;;;;;756.13;695.70;;;27.80;1.00;;;;;;5014762;28;20457;-68
2023/05/20 08:50:52;;;;;;;750.37;692.50;;;27.50;1.00;;;;;;5011285;28;20847;-68
2023/05/20 08:53:20;;;;;;;628.10;587.57;;;28.30;1.00;;;;;;5011738;28;20449;-67
2023/05/20 08:55:52;;;;;;;856.10;772.83;;;27.30;1.00;;;;;;5003095;28;20435;-69
2023/05/20 08:58:18;;;;;;;743.87;689.53;;;25.50;1.00;;;;;;4993985;28;20474;-69
2023/05/20 09:00:44;;;;;;;672.70;625.87;;;24.70;1.00;;;;;;5002710;28;20459;-69
2023/05/20 09:03:10;;;;;;;910.30;830.17;;;24.10;1.00;;;;;;4994869;28;20177;-68
2023/05/20 09:05:36;;;;;;;701.33;649.17;;;24.50;1.00;;;;;;4994607;28;21031;-69
2023/05/20 09:08:11;;;;;;;643.77;600.13;;;24.60;1.00;;;;;;4994807;28;20180;-69
2023/05/20 09:10:39;;;;;;;704.63;651.87;;;23.80;1.00;;;;;;4993775;28;20199;-72
2023/05/20 09:13:06;;;;;;;645.53;601.83;;;22.90;1.00;;;;;;5006183;28;20411;-68
2023/05/20 09:15:33;;;;;;;683.23;632.93;;;22.60;2.40;;;;;;5012950;28;20447;-67
2023/05/20 09:18:00;;;;;;;836.90;762.37;;;22.00;3.10;;;;;;5014421;28;20409;-68
2023/05/20 09:20:28;;;;;;;849.90;779.77;;;21.60;3.50;;;;;;5014036;28;20435;-68
2023/05/20 09:22:58;;;;;;;799.07;732.27;;;21.30;4.50;;;;;;5013784;28;20430;-68
2023/05/20 09:25:23;;;;;;;658.77;614.87;;;21.50;4.40;;;;;;5014027;28;20427;-69
2023/05/20 09:27:49;;;;;;;726.63;671.73;;;21.80;4.60;;;;;;5013919;28;20451;-68
2023/05/20 09:30:18;;;;;;;682.73;633.40;;;22.10;3.40;;;;;;5013886;28;20199;-67
2023/05/20 09:32:44;;;;;;;775.93;716.13;;;22.10;3.80;;;;;;5013133;28;20908;-68
2023/05/20 09:35:14;;;;;;;791.07;729.03;;;21.70;3.10;;;;;;5013895;28;20482;-68
2023/05/20 09:37:43;;;;;;;852.80;787.17;;;21.20;3.80;;;;;;5013544;28;20411;-68
2023/05/20 09:40:12;;;;;;;690.67;641.00;;;21.00;4.70;;;;;;5013754;28;20516;-70
2023/05/20 09:42:52;;;;;;;780.67;720.17;;;20.90;4.40;;;;;;5013408;28;20422;-68
2023/05/20 09:45:17;;;;;;;684.27;635.77;;;20.90;4.50;;;;;;5013361;28;20500;-69
2023/05/20 09:47:45;;;;;;;737.93;683.80;;;21.10;4.00;;;;;;5013463;28;20415;-68
2023/05/20 09:50:11;;;;;;;769.63;711.30;;;21.30;3.90;;;;;;4996756;28;20219;-68
2023/05/20 09:52:38;;;;;;;673.57;618.07;;;21.40;4.90;;;;;;5007738;28;20443;-68
2023/05/20 09:55:11;;;;;;;739.70;683.93;;;21.30;4.10;;;;;;5013367;28;20473;-68
2023/05/20 09:57:37;;;;;;;819.90;757.47;;;21.00;4.10;;;;;;5013555;28;20402;-68
2023/05/20 10:00:05;;;;;;;674.23;624.93;;;21.00;4.80;;;;;;5011576;28;20451;-69
2023/05/20 10:02:37;;;;;;;648.63;603.97;;;21.00;3.80;;;;;;5011195;28;20481;-69
2023/05/20 10:05:10;;;;;;;791.57;731.60;;;21.20;3.80;;;;;;4993513;28;20947;-68
2023/05/20 10:08:01;;;;;;;711.40;657.20;;;21.30;3.90;;;;;;4993593;28;20412;-69
2023/05/20 10:10:51;;;;;;;731.00;672.77;;;21.30;3.80;;;;;;4993428;28;20941;-69
2023/05/20 10:13:36;;;;;;;735.97;681.70;;;21.10;3.90;;;;;;4993347;28;20404;-69
2023/05/20 10:16:01;;;;;;;621.90;579.83;;;20.90;4.00;;;;;;4997004;28;20415;-68
2023/05/20 10:18:58;;;;;;;936.00;858.73;;;20.90;3.70;;;;;;5013765;28;20414;-68
2023/05/20 10:21:23;;;;;;;734.77;676.60;;;21.00;4.30;;;;;;5011764;28;20187;-70
2023/05/20 10:23:50;;;;;;;739.63;682.70;;;21.00;3.70;;;;;;5013627;28;20410;-70
2023/05/20 10:26:16;;;;;;;615.50;574.23;;;20.70;4.60;;;;;;5013154;28;20184;-70
2023/05/20 10:28:42;;;;;;;1008.63;923.03;;;21.00;5.20;;;;;;5012817;28;20508;-70
2023/05/20 10:31:20;;;;;;;732.23;678.17;;;21.30;3.90;;;;;;5012738;28;20525;-70
2023/05/20 10:33:46;;;;;;;796.03;732.37;;;21.70;4.10;;;;;;5012802;28;20188;-69
2023/05/20 10:36:29;;;;;;;720.43;666.93;;;21.70;2.80;;;;;;5012941;28;20439;-70
2023/05/20 10:38:57;;;;;;;613.63;574.27;;;21.70;2.70;;;;;;5012528;28;20430;-69
2023/05/20 10:41:27;;;;;;;794.00;733.03;;;21.60;3.50;;;;;;5012761;28;20413;-68
2023/05/20 10:44:04;;;;;;;611.17;571.57;;;21.30;3.30;;;;;;5012689;28;20791;-70
2023/05/20 10:46:30;;;;;;;813.83;746.27;;;21.30;3.80;;;;;;5012707;28;20414;-69
2023/05/20 10:48:56;;;;;;;808.40;746.50;;;21.20;3.10;;;;;;5012313;28;20505;-70
2023/05/20 10:51:23;;;;;;;631.10;590.13;;;21.00;3.60;;;;;;5012204;28;20433;-70
2023/05/20 10:53:52;;;;;;;845.97;779.07;;;21.20;3.80;;;;;;5012393;28;20426;-70
2023/05/20 10:56:25;;;;;;;689.10;638.90;;;21.70;3.60;;;;;;5012139;28;20423;-70
2023/05/20 10:58:52;;;;;;;821.67;758.07;;;22.10;3.10;;;;;;5011926;28;20429;-70
2023/05/20 11:01:23;;;;;;;845.77;777.87;;;22.20;3.60;;;;;;5012283;28;20459;-69
2023/05/20 11:03:49;;;;;;;623.17;583.63;;;22.30;3.10;;;;;;5012150;28;20427;-70
2023/05/20 11:06:16;;;;;;;844.23;775.87;;;22.50;2.30;;;;;;5012188;28;20430;-69
2023/05/20 11:08:43;;;;;;;699.47;645.67;;;22.70;2.70;;;;;;5012066;28;20450;-70
2023/05/20 11:11:13;;;;;;;737.93;681.80;;;22.60;4.70;;;;;;5011987;28;20442;-69
2023/05/20 11:13:40;;;;;;;853.57;782.33;;;22.80;4.70;;;;;;5011845;28;20415;-70
2023/05/20 11:16:05;;;;;;;746.50;689.80;;;22.80;4.90;;;;;;5011818;28;20419;-70
2023/05/20 11:18:31;;;;;;;693.27;639.27;;;22.90;4.70;;;;;;5010930;28;20430;-70
2023/05/20 11:21:01;;;;;;;856.23;788.20;;;22.70;4.80;;;;;;5012153;28;20227;-70
2023/05/20 11:23:28;;;;;;;926.40;843.73;;;22.60;6.20;;;;;;5011813;28;20263;-70
2023/05/20 11:25:55;;;;;;;674.13;623.93;;;22.80;10.70;;;;;;5010948;28;20411;-68
2023/05/20 11:28:21;;;;;;;762.60;700.30;;;22.80;9.50;;;;;;5014447;28;20917;-70
2023/05/20 11:30:47;;;;;;;812.27;750.87;;;22.70;5.80;;;;;;5016063;28;20451;-68
2023/05/20 11:33:15;;;;;;;875.73;801.47;;;22.70;12.40;;;;;;5014830;28;20429;-69
2023/05/20 11:35:49;;;;;;;731.77;674.03;;;23.10;10.80;;;;;;5016309;28;20406;-69
2023/05/20 11:38:15;;;;;;;653.77;603.17;;;23.20;8.80;;;;;;5014833;28;20433;-69
2023/05/20 11:40:45;;;;;;;668.83;620.97;;;22.90;1.90;;;;;;5015732;28;20454;-70
2023/05/20 11:43:12;;;;;;;796.63;728.73;;;22.30;2.50;;;;;;5015842;28;20259;-70
2023/05/20 11:45:42;;;;;;;856.27;788.53;;;22.50;2.40;;;;;;5014590;28;20513;-67
2023/05/20 11:48:10;;;;;;;854.00;785.00;;;22.60;1.70;;;;;;5015792;28;20958;-68
2023/05/20 11:50:39;;;;;;;973.63;891.13;;;23.00;1.60;;;;;;4998271;28;20430;-67
2023/05/20 11:53:07;;;;;;;769.87;710.00;;;23.20;1.70;;;;;;5015373;28;20434;-68
2023/05/20 11:55:34;;;;;;;726.27;671.23;;;23.50;1.00;;;;;;5015744;28;20463;-68
2023/05/20 11:58:01;;;;;;;752.90;695.90;;;23.80;1.00;;;;;;5014211;28;20414;-68
2023/05/20 12:00:26;;;;;;;931.03;850.13;;;24.00;1.00;;;;;;5016015;28;20529;-69
2023/05/20 12:02:52;;;;;;;787.53;718.90;;;23.90;1.00;;;;;;5015215;28;20510;-71
2023/05/20 12:05:18;;;;;;;708.17;656.43;;;23.60;1.00;;;;;;5014520;28;21007;-69
2023/05/20 12:07:44;;;;;;;685.17;636.97;;;23.20;1.20;;;;;;5015331;28;20637;-68
2023/05/20 12:10:10;;;;;;;748.50;690.83;;;23.30;1.80;;;;;;5014091;28;20208;-69